Time;durP1;ratioP1;P1;durP2;ratioP2;P2;SDS_P1;SDS_P2;PMS_P1;PMS_P2;Temp;Humidity;BMP_temperature;BMP_pressure;BME280_temperature;BME280_humidity;BME280_pressure;Samples;Min_cycle;Max_cycle;Signal;HPM_P1;HPM_P2
2023/11/11 00:01:52;;;;;;;4.57;3.00;;;11.50;99.90;;;;;;5121787;28;20463;-77
2023/11/11 00:04:18;;;;;;;2.30;2.20;;;11.50;99.90;;;;;;5106255;28;20479;-88
2023/11/11 00:06:44;;;;;;;0.30;0.20;;;11.40;99.90;;;;;;5106185;28;20553;-78
2023/11/11 00:09:10;;;;;;;0.30;0.20;;;11.40;99.90;;;;;;5106224;28;20619;-87
2023/11/11 00:11:37;;;;;;;0.30;0.20;;;11.40;99.90;;;;;;5105987;28;20408;-88
2023/11/11 00:14:02;;;;;;;2.93;2.53;;;11.30;99.90;;;;;;5106673;28;20459;-89
2023/11/11 00:16:31;;;;;;;0.40;0.40;;;11.40;99.90;;;;;;5106380;28;20495;-77
2023/11/11 00:18:57;;;;;;;0.30;0.20;;;11.40;99.90;;;;;;5121882;28;20502;-88
2023/11/11 00:21:23;;;;;;;0.30;0.20;;;11.40;99.90;;;;;;5105559;28;20483;-77
2023/11/11 00:23:49;;;;;;;0.30;0.20;;;11.40;99.90;;;;;;5106070;28;20261;-77
2023/11/11 00:26:15;;;;;;;0.60;0.60;;;11.40;99.90;;;;;;5105588;28;20408;-77
2023/11/11 00:28:41;;;;;;;0.30;0.20;;;11.30;99.90;;;;;;5105786;28;20444;-77
2023/11/11 00:31:10;;;;;;;0.30;0.20;;;11.30;99.90;;;;;;5105283;28;20250;-78
2023/11/11 00:33:39;;;;;;;0.30;0.20;;;11.30;99.90;;;;;;5105947;28;20303;-77
2023/11/11 00:36:06;;;;;;;0.30;0.20;;;11.30;99.90;;;;;;5105443;28;20487;-88
2023/11/11 00:38:32;;;;;;;0.30;0.20;;;11.30;99.90;;;;;;5105782;28;20196;-78
2023/11/11 00:40:58;;;;;;;0.40;0.30;;;11.30;99.90;;;;;;5121052;28;20471;-77
2023/11/11 00:43:24;;;;;;;5.50;4.80;;;11.30;99.90;;;;;;5121962;28;20219;-88
2023/11/11 00:45:53;;;;;;;2.23;2.13;;;11.30;99.90;;;;;;5106046;28;20160;-77
2023/11/11 00:48:19;;;;;;;0.30;0.20;;;11.40;99.90;;;;;;5125907;27;20976;-78
2023/11/11 00:50:45;;;;;;;0.30;0.30;;;11.40;99.90;;;;;;5124833;27;20185;-87
2023/11/11 00:53:11;;;;;;;0.30;0.20;;;11.50;99.90;;;;;;5124433;27;20563;-77
2023/11/11 00:55:37;;;;;;;4.43;4.23;;;11.50;99.90;;;;;;5125588;27;20436;-77
2023/11/11 00:58:03;;;;;;;0.30;0.20;;;11.50;99.90;;;;;;5107647;28;20968;-88
2023/11/11 01:00:30;;;;;;;0.30;0.20;;;11.50;99.90;;;;;;5125140;27;20219;-77
2023/11/11 01:02:57;;;;;;;0.67;0.67;;;11.50;99.90;;;;;;5124063;27;20184;-88
2023/11/11 01:05:23;;;;;;;0.50;0.50;;;11.60;99.90;;;;;;5109092;28;20468;-77
2023/11/11 01:07:49;;;;;;;0.50;0.20;;;11.60;99.90;;;;;;5123993;27;20628;-88
2023/11/11 01:10:18;;;;;;;0.30;0.30;;;11.60;99.90;;;;;;5124591;27;20465;-79
2023/11/11 01:12:44;;;;;;;17.52;16.30;;;11.70;99.90;;;;;;5124470;27;20233;-77
2023/11/11 01:15:13;;;;;;;0.30;0.20;;;11.70;99.90;;;;;;5108611;28;20295;-88
2023/11/11 01:17:40;;;;;;;1.05;1.05;;;11.70;99.90;;;;;;5108562;28;20450;-78
2023/11/11 01:20:06;;;;;;;1.50;1.50;;;11.60;99.90;;;;;;5124277;27;20260;-87
2023/11/11 01:22:32;;;;;;;0.50;0.50;;;11.60;99.90;;;;;;5124116;27;20408;-77
2023/11/11 01:24:58;;;;;;;0.55;0.55;;;11.60;99.90;;;;;;5124649;27;20984;-88
2023/11/11 01:27:24;;;;;;;0.83;0.83;;;11.60;99.90;;;;;;5109116;28;20230;-77
2023/11/11 01:29:50;;;;;;;6.90;1.23;;;11.60;99.90;;;;;;5124348;27;20199;-88
2023/11/11 01:32:17;;;;;;;1.00;1.00;;;11.60;99.90;;;;;;5124376;27;20571;-87
2023/11/11 01:34:43;;;;;;;0.30;0.30;;;11.60;99.90;;;;;;5124770;27;20307;-88
2023/11/11 01:37:09;;;;;;;0.30;0.20;;;11.50;99.90;;;;;;5108129;28;20255;-77
2023/11/11 01:39:35;;;;;;;0.30;0.20;;;11.50;99.90;;;;;;5123904;27;20470;-78
2023/11/11 01:42:02;;;;;;;0.30;0.20;;;11.60;99.90;;;;;;5123919;27;20243;-78
2023/11/11 01:44:28;;;;;;;0.30;0.20;;;11.60;99.90;;;;;;5124009;27;20226;-88
2023/11/11 01:46:54;;;;;;;1.70;1.50;;;11.70;99.90;;;;;;5107999;28;20566;-84
2023/11/11 01:49:21;;;;;;;0.30;0.20;;;11.70;99.90;;;;;;5108409;28;20192;-87
2023/11/11 01:51:49;;;;;;;1.07;1.07;;;11.80;99.90;;;;;;5108033;27;20248;-78
2023/11/11 01:54:16;;;;;;;0.30;0.20;;;11.80;99.90;;;;;;5123687;27;20458;-78
2023/11/11 01:56:43;;;;;;;0.30;0.30;;;11.90;99.90;;;;;;5123299;27;20431;-78
2023/11/11 01:59:10;;;;;;;0.33;0.30;;;11.90;99.90;;;;;;5122559;27;20895;-88
2023/11/11 02:01:36;;;;;;;0.30;0.20;;;11.90;99.90;;;;;;5107258;28;20464;-89
2023/11/11 02:04:02;;;;;;;0.30;0.30;;;11.90;99.90;;;;;;5107821;28;20286;-77
2023/11/11 02:06:29;;;;;;;0.30;0.20;;;11.90;99.90;;;;;;5123513;27;20180;-86
2023/11/11 02:08:55;;;;;;;1.37;1.27;;;11.90;99.90;;;;;;5107962;28;20454;-81
2023/11/11 02:11:21;;;;;;;0.60;0.60;;;11.90;99.90;;;;;;5108076;27;20486;-79
2023/11/11 02:13:47;;;;;;;1.10;1.10;;;11.90;99.90;;;;;;5123616;27;20455;-89
2023/11/11 02:16:14;;;;;;;0.30;0.20;;;12.00;99.90;;;;;;5107365;27;20168;-88
2023/11/11 02:18:40;;;;;;;0.70;0.70;;;12.00;99.90;;;;;;5108122;27;20555;-78
2023/11/11 02:21:06;;;;;;;0.30;0.20;;;12.00;99.90;;;;;;5106844;28;20566;-78
2023/11/11 02:23:33;;;;;;;0.40;0.30;;;11.90;99.90;;;;;;5123239;27;20547;-88
2023/11/11 02:26:00;;;;;;;0.60;0.60;;;12.00;99.90;;;;;;5122741;27;20175;-78
2023/11/11 02:28:26;;;;;;;0.30;0.20;;;12.00;99.90;;;;;;5123114;27;20462;-88
2023/11/11 02:30:51;;;;;;;0.30;0.30;;;12.00;99.90;;;;;;5106562;28;20882;-79
2023/11/11 02:33:17;;;;;;;0.30;0.30;;;12.00;99.90;;;;;;5122967;27;20291;-77
2023/11/11 02:35:43;;;;;;;0.57;0.57;;;12.00;99.90;;;;;;5123399;27;20580;-83
2023/11/11 02:38:08;;;;;;;0.70;0.70;;;12.10;99.90;;;;;;5122596;27;20200;-89
2023/11/11 02:40:34;;;;;;;1.13;1.13;;;12.10;99.90;;;;;;5107066;28;20207;-77
2023/11/11 02:43:00;;;;;;;0.30;0.20;;;12.10;99.90;;;;;;5106770;28;20676;-87
2023/11/11 02:45:26;;;;;;;3.53;3.23;;;12.10;99.90;;;;;;5122740;27;20407;-78
2023/11/11 02:47:51;;;;;;;0.50;0.50;;;12.10;99.90;;;;;;5122528;27;20179;-88
2023/11/11 02:50:17;;;;;;;0.30;0.20;;;12.10;99.90;;;;;;5106975;28;20792;-88
2023/11/11 02:52:43;;;;;;;0.30;0.20;;;12.10;99.90;;;;;;5107128;28;20194;-88
2023/11/11 02:55:09;;;;;;;0.30;0.30;;;12.10;99.90;;;;;;5122858;27;20408;-87
2023/11/11 02:57:35;;;;;;;0.30;0.20;;;12.10;99.90;;;;;;5122656;27;20192;-88
2023/11/11 03:00:01;;;;;;;0.30;0.30;;;12.10;99.90;;;;;;5106435;28;20416;-88
2023/11/11 03:02:27;;;;;;;0.30;0.20;;;12.10;99.90;;;;;;5107074;28;20420;-88
2023/11/11 03:04:53;;;;;;;2.87;2.67;;;12.20;99.90;;;;;;5106560;28;20187;-89
2023/11/11 03:07:19;;;;;;;0.30;0.30;;;12.10;99.90;;;;;;5105936;28;20451;-84
2023/11/11 03:09:44;;;;;;;0.70;0.70;;;12.20;99.90;;;;;;5121527;27;20326;-77
2023/11/11 03:12:11;;;;;;;0.30;0.20;;;12.10;99.90;;;;;;5122156;27;20443;-78
2023/11/11 03:14:37;;;;;;;2.53;1.63;;;12.20;99.90;;;;;;5122184;27;20239;-88
2023/11/11 03:17:03;;;;;;;0.30;0.20;;;12.10;99.90;;;;;;5106223;28;20406;-87
2023/11/11 03:19:29;;;;;;;2.53;2.33;;;12.10;99.90;;;;;;5106939;28;20435;-88
2023/11/11 03:21:54;;;;;;;0.87;0.87;;;12.10;99.90;;;;;;5121892;27;20691;-83
2023/11/11 03:24:20;;;;;;;0.30;0.20;;;12.10;99.90;;;;;;5122132;27;20203;-79
2023/11/11 03:26:46;;;;;;;0.30;0.20;;;12.10;99.90;;;;;;5106256;28;20171;-88
2023/11/11 03:29:12;;;;;;;0.30;0.20;;;12.10;99.90;;;;;;5121614;27;20451;-89
2023/11/11 03:31:38;;;;;;;1.83;1.73;;;12.10;99.90;;;;;;5105904;28;20175;-78
2023/11/11 03:34:03;;;;;;;0.40;0.20;;;12.20;99.90;;;;;;5105043;28;20204;-78
2023/11/11 03:36:29;;;;;;;1.73;1.30;;;12.10;99.90;;;;;;5107075;28;20452;-78
2023/11/11 03:38:55;;;;;;;0.30;0.20;;;12.10;99.90;;;;;;5106714;28;20483;-80
2023/11/11 03:41:21;;;;;;;0.30;0.20;;;12.10;99.90;;;;;;5121411;28;20209;-78
2023/11/11 03:43:46;;;;;;;0.30;0.20;;;12.20;99.90;;;;;;5122008;28;20203;-88
2023/11/11 03:46:12;;;;;;;0.97;0.63;;;12.10;99.90;;;;;;5106356;28;20164;-88
2023/11/11 03:48:38;;;;;;;0.30;0.20;;;12.20;99.90;;;;;;5122474;28;20229;-88
2023/11/11 03:51:03;;;;;;;0.70;0.70;;;12.10;99.90;;;;;;5121358;28;20270;-88
2023/11/11 03:53:29;;;;;;;0.80;0.80;;;12.10;99.90;;;;;;5121849;28;20203;-85
2023/11/11 03:55:55;;;;;;;0.77;0.67;;;12.20;99.90;;;;;;5105392;28;20216;-85
2023/11/11 03:58:22;;;;;;;0.40;0.20;;;12.10;99.90;;;;;;5121759;28;20447;-78
2023/11/11 04:00:48;;;;;;;0.30;0.20;;;12.20;99.90;;;;;;5121621;28;20268;-89
2023/11/11 04:03:14;;;;;;;0.87;0.87;;;12.20;99.90;;;;;;5120559;28;20219;-78
2023/11/11 04:05:40;;;;;;;0.57;0.57;;;12.20;99.90;;;;;;5122357;28;20202;-82
2023/11/11 04:08:06;;;;;;;0.30;0.30;;;12.20;99.90;;;;;;5121407;28;20466;-89
2023/11/11 04:10:31;;;;;;;0.30;0.20;;;12.20;99.90;;;;;;5122035;28;20503;-87
2023/11/11 04:12:57;;;;;;;0.40;0.40;;;12.10;99.90;;;;;;5121705;28;20435;-78
2023/11/11 04:15:23;;;;;;;0.30;0.20;;;12.10;99.90;;;;;;5121835;28;20578;-77
2023/11/11 04:17:49;;;;;;;3.23;1.60;;;12.20;99.90;;;;;;5121855;28;20507;-78
2023/11/11 04:20:15;;;;;;;0.60;0.60;;;12.20;99.90;;;;;;5107585;28;20656;-86
2023/11/11 04:22:41;;;;;;;0.30;0.20;;;12.10;99.90;;;;;;5109856;28;20379;-88
2023/11/11 04:25:08;;;;;;;0.73;0.73;;;12.20;99.90;;;;;;5109612;28;20168;-77
2023/11/11 04:27:35;;;;;;;0.30;0.20;;;12.10;99.90;;;;;;5124945;27;20629;-77
2023/11/11 04:30:03;;;;;;;2.05;1.95;;;12.10;99.90;;;;;;5125200;27;20195;-88
2023/11/11 04:32:29;;;;;;;0.30;0.20;;;12.10;99.90;;;;;;5125136;27;20168;-87
2023/11/11 04:34:55;;;;;;;0.30;0.27;;;12.10;99.90;;;;;;5109430;28;20194;-80
2023/11/11 04:37:21;;;;;;;0.30;0.20;;;12.10;99.90;;;;;;5125162;27;20418;-78
2023/11/11 04:39:47;;;;;;;0.30;0.20;;;12.00;99.90;;;;;;5109775;28;20804;-87
2023/11/11 04:42:16;;;;;;;0.30;0.20;;;12.10;99.90;;;;;;5125170;27;20464;-85
2023/11/11 04:44:45;;;;;;;0.30;0.20;;;12.00;99.90;;;;;;5109727;28;20532;-77
2023/11/11 04:47:10;;;;;;;3.92;3.20;;;12.00;99.90;;;;;;5109412;28;20316;-77
2023/11/11 04:49:37;;;;;;;0.30;0.20;;;12.00;99.90;;;;;;5110049;28;20278;-78
2023/11/11 04:52:07;;;;;;;0.40;0.38;;;12.00;99.90;;;;;;5108982;28;20404;-87
2023/11/11 04:54:32;;;;;;;2.10;2.00;;;12.00;99.90;;;;;;5109201;28;20207;-88
2023/11/11 04:56:59;;;;;;;0.70;0.70;;;12.00;99.90;;;;;;5125324;27;20172;-77
2023/11/11 04:59:26;;;;;;;2.25;2.15;;;12.00;99.90;;;;;;5125041;27;20447;-87
2023/11/11 05:01:53;;;;;;;0.30;0.20;;;12.00;99.90;;;;;;5108117;28;20683;-78
2023/11/11 05:04:19;;;;;;;0.50;0.47;;;12.00;99.90;;;;;;5108648;28;20955;-88
2023/11/11 05:06:45;;;;;;;2.28;2.17;;;12.00;99.90;;;;;;5124740;27;20180;-87
2023/11/11 05:09:11;;;;;;;1.27;1.27;;;11.90;99.90;;;;;;5109268;28;20215;-77
2023/11/11 05:11:38;;;;;;;0.30;0.20;;;11.90;99.90;;;;;;5124496;27;20685;-81
2023/11/11 05:14:08;;;;;;;0.30;0.20;;;11.90;99.90;;;;;;5124315;27;20578;-86
2023/11/11 05:16:39;;;;;;;0.40;0.40;;;11.80;99.90;;;;;;5123993;27;20420;-87
2023/11/11 05:19:06;;;;;;;0.30;0.30;;;11.80;99.90;;;;;;5108608;28;20768;-86
2023/11/11 05:21:32;;;;;;;1.60;1.58;;;11.70;99.90;;;;;;5108367;28;20199;-78
2023/11/11 05:23:58;;;;;;;0.67;0.20;;;11.70;99.90;;;;;;5124091;27;20588;-78
2023/11/11 05:26:23;;;;;;;1.50;1.50;;;11.60;99.90;;;;;;5108370;28;20543;-85
2023/11/11 05:28:49;;;;;;;4.27;3.90;;;11.60;99.90;;;;;;5106765;28;20196;-86
2023/11/11 05:31:15;;;;;;;0.30;0.30;;;11.60;99.90;;;;;;5123181;27;20625;-85
2023/11/11 05:33:41;;;;;;;0.30;0.20;;;11.60;99.90;;;;;;5108027;28;20354;-87
2023/11/11 05:36:09;;;;;;;0.30;0.20;;;11.60;99.90;;;;;;5108604;28;20537;-85
2023/11/11 05:38:35;;;;;;;0.30;0.20;;;11.50;99.90;;;;;;5124123;27;20470;-77
2023/11/11 05:41:00;;;;;;;0.30;0.20;;;11.50;99.90;;;;;;5108170;28;20380;-77
2023/11/11 05:43:26;;;;;;;1.47;1.47;;;11.50;99.90;;;;;;5123795;27;20207;-87
2023/11/11 05:45:52;;;;;;;0.30;0.30;;;11.50;99.90;;;;;;5123397;27;20628;-87
2023/11/11 05:48:18;;;;;;;0.40;0.30;;;11.40;99.90;;;;;;5108137;28;20206;-87
2023/11/11 05:50:45;;;;;;;0.88;0.43;;;11.40;99.90;;;;;;5108080;28;20164;-78
2023/11/11 05:53:10;;;;;;;0.90;0.90;;;11.40;99.90;;;;;;5123147;27;20269;-87
2023/11/11 05:55:36;;;;;;;1.90;1.80;;;11.40;99.90;;;;;;5107731;28;20195;-85
2023/11/11 05:58:02;;;;;;;2.60;1.03;;;11.40;99.90;;;;;;5107403;28;20581;-86
2023/11/11 06:00:28;;;;;;;0.57;0.57;;;11.40;99.90;;;;;;5123279;27;20571;-81
2023/11/11 06:02:54;;;;;;;0.30;0.20;;;11.40;99.90;;;;;;5123004;27;20713;-86
2023/11/11 06:05:21;;;;;;;0.30;0.20;;;11.40;99.90;;;;;;5106890;28;20160;-84
2023/11/11 06:07:47;;;;;;;0.30;0.20;;;11.30;99.90;;;;;;5107420;28;20194;-87
2023/11/11 06:10:13;;;;;;;0.40;0.20;;;11.30;99.90;;;;;;5123694;27;20172;-81
2023/11/11 06:12:38;;;;;;;0.30;0.20;;;11.30;99.90;;;;;;5122890;27;20175;-78
2023/11/11 06:15:07;;;;;;;0.30;0.20;;;11.30;99.90;;;;;;5123060;27;20591;-77
2023/11/11 06:17:33;;;;;;;0.30;0.20;;;11.40;99.90;;;;;;5107170;28;20678;-85
2023/11/11 06:19:59;;;;;;;0.30;0.20;;;11.30;99.90;;;;;;5123058;27;20192;-78
2023/11/11 06:22:26;;;;;;;0.40;0.40;;;11.40;99.90;;;;;;5122793;27;20180;-78
2023/11/11 06:24:51;;;;;;;0.30;0.20;;;11.40;99.90;;;;;;5122957;27;20216;-87
2023/11/11 06:27:17;;;;;;;0.30;0.20;;;11.40;99.90;;;;;;5107516;28;20211;-78
2023/11/11 06:29:43;;;;;;;1.43;1.43;;;11.40;99.90;;;;;;5107109;28;20370;-85
2023/11/11 06:32:09;;;;;;;0.30;0.20;;;11.40;99.90;;;;;;5122824;27;20183;-86
2023/11/11 06:34:34;;;;;;;0.30;0.20;;;11.40;99.90;;;;;;5106027;28;20291;-86
2023/11/11 06:37:00;;;;;;;2.03;1.10;;;11.40;99.90;;;;;;5104351;28;20540;-77
2023/11/11 06:39:30;;;;;;;0.67;0.67;;;11.40;99.90;;;;;;5105219;28;20211;-78
2023/11/11 06:41:56;;;;;;;0.60;0.60;;;11.40;99.90;;;;;;5105156;28;21034;-78
2023/11/11 06:44:21;;;;;;;0.43;0.43;;;11.40;99.90;;;;;;5105433;28;20192;-77
2023/11/11 06:46:47;;;;;;;0.30;0.20;;;11.40;99.90;;;;;;5104875;28;20635;-77
2023/11/11 06:49:13;;;;;;;22.98;5.45;;;11.40;99.90;;;;;;5104580;28;20210;-87
2023/11/11 06:51:39;;;;;;;1.07;1.07;;;11.40;99.90;;;;;;5106673;28;20526;-78
2023/11/11 06:54:07;;;;;;;0.30;0.20;;;11.40;99.90;;;;;;5104302;28;20681;-78
2023/11/11 06:56:32;;;;;;;0.30;0.20;;;11.40;99.90;;;;;;5103347;28;20172;-85
2023/11/11 06:58:58;;;;;;;0.30;0.20;;;11.40;99.90;;;;;;5103658;28;20207;-78
2023/11/11 07:01:24;;;;;;;0.30;0.20;;;11.40;99.90;;;;;;5103390;28;20199;-86
2023/11/11 07:03:50;;;;;;;0.30;0.20;;;11.40;99.90;;;;;;5105458;28;20222;-84
2023/11/11 07:06:22;;;;;;;0.60;0.60;;;11.40;99.90;;;;;;5104850;28;20321;-85
2023/11/11 07:08:50;;;;;;;0.30;0.20;;;11.40;99.90;;;;;;5102330;28;20490;-78
2023/11/11 07:11:15;;;;;;;0.35;0.35;;;11.50;99.90;;;;;;5104798;28;20182;-86
2023/11/11 07:13:43;;;;;;;0.30;0.20;;;11.50;99.90;;;;;;5104847;28;20204;-86
2023/11/11 07:16:12;;;;;;;4.43;2.90;;;11.50;99.90;;;;;;5104848;28;20528;-86
2023/11/11 07:18:38;;;;;;;0.30;0.20;;;11.50;99.90;;;;;;5106292;28;20672;-78
2023/11/11 07:21:04;;;;;;;0.30;0.20;;;11.50;99.90;;;;;;5104627;28;20302;-86
2023/11/11 07:23:31;;;;;;;0.30;0.20;;;11.50;99.90;;;;;;5106214;28;20777;-78
2023/11/11 07:25:57;;;;;;;0.30;0.20;;;11.50;99.90;;;;;;5104561;28;20532;-86
2023/11/11 07:28:24;;;;;;;0.30;0.20;;;11.60;99.90;;;;;;5106224;28;20200;-87
2023/11/11 07:30:51;;;;;;;0.30;0.30;;;11.50;99.90;;;;;;5105499;28;20172;-78
2023/11/11 07:33:16;;;;;;;0.30;0.20;;;11.60;99.90;;;;;;5106180;28;20584;-87
2023/11/11 07:35:42;;;;;;;0.30;0.20;;;11.50;99.90;;;;;;5106182;28;20501;-80
2023/11/11 07:38:08;;;;;;;0.40;0.30;;;11.60;99.90;;;;;;5106270;28;20199;-78
2023/11/11 07:40:34;;;;;;;0.73;0.73;;;11.60;99.90;;;;;;5104607;28;20736;-78
2023/11/11 07:43:00;;;;;;;0.77;0.73;;;11.70;99.90;;;;;;5104505;28;20204;-78
2023/11/11 07:45:26;;;;;;;0.93;0.93;;;11.70;99.90;;;;;;5105058;28;20651;-78
2023/11/11 07:47:52;;;;;;;0.40;0.32;;;11.70;99.90;;;;;;5105717;28;20428;-87
2023/11/11 07:50:20;;;;;;;0.30;0.20;;;11.80;99.90;;;;;;5104918;28;20566;-87
2023/11/11 07:52:46;;;;;;;1.30;1.20;;;11.80;99.90;;;;;;5104350;28;20583;-87
2023/11/11 07:55:12;;;;;;;0.60;0.60;;;11.80;99.90;;;;;;5106041;28;20211;-86
2023/11/11 07:57:38;;;;;;;0.30;0.25;;;11.90;99.90;;;;;;5109415;28;20175;-88
2023/11/11 08:00:06;;;;;;;0.30;0.20;;;11.90;99.90;;;;;;5109949;28;20240;-87
2023/11/11 08:02:32;;;;;;;0.30;0.20;;;12.00;99.90;;;;;;5109661;28;20599;-78
2023/11/11 08:04:58;;;;;;;0.30;0.20;;;12.00;99.90;;;;;;5108701;28;20210;-79
2023/11/11 08:07:24;;;;;;;0.70;0.70;;;12.10;99.90;;;;;;5109689;28;20331;-78
2023/11/11 08:09:50;;;;;;;0.70;0.70;;;12.10;99.90;;;;;;5107402;28;20196;-87
2023/11/11 08:12:17;;;;;;;0.30;0.20;;;12.10;99.90;;;;;;5108195;28;20423;-87
2023/11/11 08:14:43;;;;;;;1.38;1.30;;;12.20;99.90;;;;;;5109680;28;20231;-88
2023/11/11 08:17:09;;;;;;;3.17;2.95;;;12.30;99.90;;;;;;5110036;28;20199;-78
2023/11/11 08:19:34;;;;;;;3.10;2.90;;;12.30;99.90;;;;;;5110161;28;20509;-78
2023/11/11 08:22:00;;;;;;;0.30;0.20;;;12.30;99.90;;;;;;5109739;28;20207;-86
2023/11/11 08:24:26;;;;;;;0.30;0.30;;;12.40;99.90;;;;;;5108256;28;20203;-79
2023/11/11 08:26:52;;;;;;;0.67;0.67;;;12.40;99.90;;;;;;5107783;28;20179;-87
2023/11/11 08:29:18;;;;;;;0.30;0.30;;;12.40;99.90;;;;;;5108131;28;20443;-87
2023/11/11 08:31:43;;;;;;;0.30;0.30;;;12.40;99.90;;;;;;5108111;28;20180;-87
2023/11/11 08:34:09;;;;;;;8.67;8.23;;;12.50;99.90;;;;;;5109585;28;20679;-78
2023/11/11 08:36:36;;;;;;;2.50;2.40;;;12.50;99.90;;;;;;5109157;28;20172;-78
2023/11/11 08:39:02;;;;;;;0.30;0.20;;;12.50;99.90;;;;;;5109188;28;20509;-78
2023/11/11 08:41:28;;;;;;;0.30;0.30;;;12.50;99.90;;;;;;5109265;28;20982;-78
2023/11/11 08:43:53;;;;;;;0.30;0.20;;;12.60;99.90;;;;;;5109207;28;20266;-77
2023/11/11 08:46:19;;;;;;;0.30;0.20;;;12.60;99.90;;;;;;5109037;28;20176;-78
2023/11/11 08:48:45;;;;;;;3.40;3.13;;;12.60;99.90;;;;;;5107833;28;20195;-87
2023/11/11 08:51:13;;;;;;;0.63;0.63;;;12.50;99.90;;;;;;5108867;28;20264;-84
2023/11/11 08:53:39;;;;;;;0.30;0.20;;;12.50;99.90;;;;;;5107584;28;20227;-87
2023/11/11 08:56:05;;;;;;;0.40;0.40;;;12.50;99.90;;;;;;5108800;28;20214;-77
2023/11/11 08:58:31;;;;;;;0.30;0.30;;;12.50;99.90;;;;;;5107655;28;20222;-87
2023/11/11 09:00:57;;;;;;;0.30;0.20;;;12.50;99.90;;;;;;5108655;28;20499;-87
2023/11/11 09:03:23;;;;;;;0.77;0.77;;;12.50;99.90;;;;;;5107890;28;20261;-79
2023/11/11 09:05:50;;;;;;;0.30;0.20;;;12.50;99.90;;;;;;5108507;28;20171;-87
2023/11/11 09:08:15;;;;;;;0.50;0.47;;;12.50;99.90;;;;;;5107938;28;20467;-79
2023/11/11 09:10:41;;;;;;;0.30;0.20;;;12.60;99.90;;;;;;5108541;28;20671;-87
2023/11/11 09:13:17;;;;;;;0.87;0.87;;;12.60;99.90;;;;;;5108195;28;20453;-79
2023/11/11 09:15:42;;;;;;;0.32;0.20;;;12.60;99.90;;;;;;5108650;28;20219;-79
2023/11/11 09:18:08;;;;;;;0.40;0.40;;;12.60;99.90;;;;;;5106973;28;20421;-88
2023/11/11 09:20:34;;;;;;;0.30;0.20;;;12.60;99.90;;;;;;5106857;28;20210;-79
2023/11/11 09:22:59;;;;;;;0.73;0.73;;;12.70;99.90;;;;;;5106783;28;20223;-78
2023/11/11 09:25:26;;;;;;;2.53;1.73;;;12.70;99.90;;;;;;5106490;28;20184;-85
2023/11/11 09:27:52;;;;;;;0.30;0.20;;;12.70;99.90;;;;;;5105052;28;20664;-79
2023/11/11 09:30:19;;;;;;;1.25;1.15;;;12.60;99.90;;;;;;5106721;28;20404;-79
2023/11/11 09:32:45;;;;;;;0.40;0.30;;;12.70;99.90;;;;;;5105077;28;20240;-87
2023/11/11 09:35:14;;;;;;;2.83;2.73;;;12.60;99.90;;;;;;5106922;28;20534;-79
2023/11/11 09:37:40;;;;;;;39.40;32.50;;;12.60;99.90;;;;;;5104929;28;20187;-79
2023/11/11 09:40:09;;;;;;;0.87;0.87;;;12.60;99.90;;;;;;5105349;28;20589;-79
2023/11/11 09:42:37;;;;;;;0.93;0.93;;;12.60;99.90;;;;;;5105057;28;20410;-89
2023/11/11 09:45:04;;;;;;;1.87;1.80;;;12.50;99.90;;;;;;5106194;28;20430;-79
2023/11/11 09:47:33;;;;;;;3.63;3.35;;;12.50;99.90;;;;;;5106368;28;20500;-79
2023/11/11 09:50:02;;;;;;;16.63;8.20;;;12.50;99.90;;;;;;5104154;28;20204;-88
2023/11/11 09:52:31;;;;;;;3.30;3.20;;;12.50;99.90;;;;;;5106034;28;20454;-79
2023/11/11 09:55:02;;;;;;;0.67;0.60;;;12.50;99.90;;;;;;5103582;28;20573;-78
2023/11/11 09:57:29;;;;;;;2.15;2.05;;;12.50;99.90;;;;;;5105486;28;20956;-81
2023/11/11 09:59:56;;;;;;;4.20;3.55;;;12.50;99.90;;;;;;5107846;28;20532;-87
2023/11/11 10:02:26;;;;;;;0.30;0.30;;;12.50;99.90;;;;;;5106637;28;20614;-88
2023/11/11 10:04:53;;;;;;;0.52;0.52;;;12.50;99.90;;;;;;5106607;27;20199;-79
2023/11/11 10:07:21;;;;;;;0.30;0.30;;;12.50;99.90;;;;;;5107848;28;20659;-79
2023/11/11 10:09:51;;;;;;;1.30;1.30;;;12.50;99.90;;;;;;5105334;28;20211;-88
2023/11/11 10:12:17;;;;;;;2.25;2.05;;;12.60;99.90;;;;;;5106972;28;20185;-88
2023/11/11 10:14:43;;;;;;;3.58;2.72;;;12.60;99.90;;;;;;5107561;28;20493;-79
2023/11/11 10:17:11;;;;;;;2.63;2.53;;;12.60;99.90;;;;;;5104955;28;20275;-87
2023/11/11 10:19:43;;;;;;;0.30;0.25;;;12.60;99.90;;;;;;5107342;28;20577;-87
2023/11/11 10:22:09;;;;;;;0.40;0.30;;;12.60;99.90;;;;;;5107120;28;20200;-78
2023/11/11 10:24:35;;;;;;;3.70;3.50;;;12.50;99.90;;;;;;5106041;28;20225;-87
2023/11/11 10:27:03;;;;;;;1.20;1.20;;;12.50;99.90;;;;;;5106864;28;20252;-78
2023/11/11 10:29:35;;;;;;;1.02;1.00;;;12.60;99.90;;;;;;5107090;27;20439;-87
2023/11/11 10:32:07;;;;;;;5.57;5.20;;;12.50;99.90;;;;;;5107016;28;20168;-87
2023/11/11 10:34:34;;;;;;;5.63;5.23;;;12.50;99.90;;;;;;5106952;28;20488;-78
2023/11/11 10:37:02;;;;;;;1.03;1.03;;;12.50;99.90;;;;;;5105311;28;20416;-78
2023/11/11 10:39:30;;;;;;;0.73;0.73;;;12.50;99.90;;;;;;5105815;28;20467;-78
2023/11/11 10:41:56;;;;;;;1.05;1.05;;;12.50;99.90;;;;;;5106536;28;20555;-78
2023/11/11 10:44:23;;;;;;;8.90;8.40;;;12.50;99.90;;;;;;5107331;28;20263;-78
2023/11/11 10:46:49;;;;;;;0.30;0.30;;;12.40;99.90;;;;;;5105212;28;20432;-87
2023/11/11 10:49:15;;;;;;;0.40;0.20;;;12.50;99.90;;;;;;5105663;28;20382;-86
2023/11/11 10:51:41;;;;;;;1.80;1.70;;;12.50;99.90;;;;;;5105472;28;20424;-78
2023/11/11 10:54:08;;;;;;;0.65;0.65;;;12.50;99.90;;;;;;5106500;28;20435;-78
2023/11/11 10:56:34;;;;;;;0.30;0.20;;;12.50;99.90;;;;;;5106292;28;20176;-78
2023/11/11 10:59:05;;;;;;;0.97;0.97;;;12.50;99.90;;;;;;5104795;28;20841;-86
2023/11/11 11:01:35;;;;;;;1.20;1.20;;;12.60;99.90;;;;;;5106516;28;20568;-79
2023/11/11 11:04:01;;;;;;;0.30;0.20;;;12.60;99.90;;;;;;5105377;28;20275;-87
2023/11/11 11:06:40;;;;;;;3.20;3.10;;;12.60;99.90;;;;;;5106396;28;20417;-79
2023/11/11 11:09:42;;;;;;;0.30;0.20;;;12.60;99.90;;;;;;5106552;28;20670;-78
2023/11/11 11:12:26;;;;;;;0.30;0.20;;;12.70;99.90;;;;;;5106118;28;20477;-77
2023/11/11 11:14:52;;;;;;;1.15;1.15;;;12.60;99.90;;;;;;5104586;28;20284;-78
2023/11/11 11:17:43;;;;;;;5.10;4.37;;;12.60;99.90;;;;;;5104865;28;20176;-78
2023/11/11 11:20:12;;;;;;;0.30;0.20;;;12.60;99.90;;;;;;5105417;28;20404;-87
2023/11/11 11:22:40;;;;;;;45.70;9.97;;;12.60;99.90;;;;;;5106412;28;20909;-79
2023/11/11 11:25:34;;;;;;;2.80;2.70;;;12.60;99.90;;;;;;5106299;28;20405;-78
2023/11/11 11:28:22;;;;;;;0.30;0.20;;;12.50;99.90;;;;;;5104199;28;20638;-86
2023/11/11 11:30:58;;;;;;;1.30;1.30;;;12.60;99.90;;;;;;5102138;28;20460;-78
2023/11/11 11:33:26;;;;;;;0.50;0.50;;;12.50;99.90;;;;;;5105016;28;20450;-81
2023/11/11 11:35:56;;;;;;;0.40;0.40;;;12.60;99.90;;;;;;5104545;28;20400;-78
2023/11/11 11:38:31;;;;;;;0.30;0.20;;;12.60;99.90;;;;;;5103365;28;21085;-87
2023/11/11 11:41:10;;;;;;;0.40;0.40;;;12.60;99.90;;;;;;5104158;28;21140;-78
2023/11/11 11:43:36;;;;;;;0.30;0.20;;;12.50;99.90;;;;;;5103167;28;20237;-86
2023/11/11 11:46:04;;;;;;;0.30;0.20;;;12.50;99.90;;;;;;5104489;28;20183;-78
2023/11/11 11:48:32;;;;;;;2.25;2.15;;;12.50;99.90;;;;;;5104877;28;20432;-83
2023/11/11 11:51:14;;;;;;;0.30;0.20;;;12.40;99.90;;;;;;5103377;28;20688;-87
2023/11/11 11:53:42;;;;;;;0.30;0.20;;;12.40;99.90;;;;;;5104575;28;20255;-87
2023/11/11 11:56:13;;;;;;;0.30;0.20;;;12.40;99.90;;;;;;5102753;28;20186;-78
2023/11/11 11:58:50;;;;;;;1.50;1.40;;;12.50;99.90;;;;;;5104157;28;20708;-78
2023/11/11 12:01:27;;;;;;;0.30;0.20;;;12.40;99.90;;;;;;5103070;28;20213;-78
2023/11/11 12:03:54;;;;;;;0.70;0.67;;;12.50;99.90;;;;;;5103494;28;20373;-87
2023/11/11 12:06:23;;;;;;;0.30;0.20;;;12.50;99.90;;;;;;5104115;28;20442;-87
2023/11/11 12:08:54;;;;;;;0.30;0.30;;;12.50;99.90;;;;;;5105414;28;20192;-87
2023/11/11 12:11:26;;;;;;;0.40;0.30;;;12.50;99.90;;;;;;5105368;28;20183;-87
2023/11/11 12:13:56;;;;;;;0.38;0.35;;;12.50;99.90;;;;;;5105319;28;20187;-87
2023/11/11 12:16:52;;;;;;;0.40;0.30;;;12.40;99.90;;;;;;5105181;28;20199;-78
2023/11/11 12:19:21;;;;;;;0.40;0.40;;;12.50;99.90;;;;;;5106110;28;20196;-78
2023/11/11 12:21:50;;;;;;;0.30;0.20;;;12.50;99.90;;;;;;5103884;28;20519;-85
2023/11/11 12:24:17;;;;;;;0.30;0.20;;;12.50;99.90;;;;;;5121027;28;20223;-78
2023/11/11 12:26:47;;;;;;;0.30;0.20;;;12.50;99.90;;;;;;5121208;28;20180;-87
2023/11/11 12:29:13;;;;;;;4.38;4.18;;;12.50;99.90;;;;;;5106031;28;20241;-87
2023/11/11 12:31:52;;;;;;;0.30;0.20;;;12.50;99.90;;;;;;5105433;28;20168;-88
2023/11/11 12:34:22;;;;;;;0.60;0.60;;;12.50;99.90;;;;;;5121394;28;20203;-78
2023/11/11 12:36:52;;;;;;;1.77;1.67;;;12.50;99.90;;;;;;5121017;28;20423;-78
2023/11/11 12:39:18;;;;;;;7.93;7.40;;;12.50;99.90;;;;;;5121688;28;20217;-86
2023/11/11 12:41:51;;;;;;;4.13;3.70;;;12.50;99.90;;;;;;5107622;28;20208;-77
2023/11/11 12:44:18;;;;;;;0.30;0.20;;;12.40;99.90;;;;;;5109297;28;20501;-77
2023/11/11 12:46:45;;;;;;;0.30;0.20;;;12.40;99.90;;;;;;5109297;28;20404;-78